sensor_id;sensor_type;location;lat;lon;timestamp;temperature;humidity
75466;HTU21D;64049;46.290;44.240;2023-12-14T00:01:38;-8.84;81.77
75466;HTU21D;64049;46.290;44.240;2023-12-14T00:04:06;-8.85;81.77
75466;HTU21D;64049;46.290;44.240;2023-12-14T00:06:31;-8.85;81.79
75466;HTU21D;64049;46.290;44.240;2023-12-14T00:08:57;-8.85;81.78
75466;HTU21D;64049;46.290;44.240;2023-12-14T00:11:23;-8.85;81.79
75466;HTU21D;64049;46.290;44.240;2023-12-14T00:13:49;-8.84;81.78
75466;HTU21D;64049;46.290;44.240;2023-12-14T00:16:15;-8.85;81.79
75466;HTU21D;64049;46.290;44.240;2023-12-14T00:18:41;-8.84;81.78
75466;HTU21D;64049;46.290;44.240;2023-12-14T00:21:07;-8.85;81.79
75466;HTU21D;64049;46.290;44.240;2023-12-14T00:23:34;-8.85;81.80
75466;HTU21D;64049;46.290;44.240;2023-12-14T00:26:00;-8.84;81.80
75466;HTU21D;64049;46.290;44.240;2023-12-14T00:28:25;-8.84;81.78
75466;HTU21D;64049;46.290;44.240;2023-12-14T00:30:51;-8.82;81.78
75466;HTU21D;64049;46.290;44.240;2023-12-14T00:33:17;-8.83;81.78
75466;HTU21D;64049;46.290;44.240;2023-12-14T00:35:43;-8.81;81.79
75466;HTU21D;64049;46.290;44.240;2023-12-14T00:38:09;-8.82;81.78
75466;HTU21D;64049;46.290;44.240;2023-12-14T00:40:35;-8.82;81.77
75466;HTU21D;64049;46.290;44.240;2023-12-14T00:43:01;-8.83;81.76
75466;HTU21D;64049;46.290;44.240;2023-12-14T00:45:27;-8.86;81.78
75466;HTU21D;64049;46.290;44.240;2023-12-14T00:47:53;-8.86;81.81
75466;HTU21D;64049;46.290;44.240;2023-12-14T00:50:18;-8.86;81.81
75466;HTU21D;64049;46.290;44.240;2023-12-14T00:52:44;-8.85;81.83
75466;HTU21D;64049;46.290;44.240;2023-12-14T00:55:10;-8.86;81.84
75466;HTU21D;64049;46.290;44.240;2023-12-14T00:57:36;-8.87;81.82
75466;HTU21D;64049;46.290;44.240;2023-12-14T01:00:02;-8.85;81.84
75466;HTU21D;64049;46.290;44.240;2023-12-14T01:02:29;-8.84;81.82
75466;HTU21D;64049;46.290;44.240;2023-12-14T01:04:55;-8.84;81.82
75466;HTU21D;64049;46.290;44.240;2023-12-14T01:07:21;-8.85;81.81
75466;HTU21D;64049;46.290;44.240;2023-12-14T01:09:47;-8.87;81.81
75466;HTU21D;64049;46.290;44.240;2023-12-14T01:12:13;-8.88;81.82
75466;HTU21D;64049;46.290;44.240;2023-12-14T01:14:38;-8.89;81.84
75466;HTU21D;64049;46.290;44.240;2023-12-14T01:17:04;-8.89;81.85
75466;HTU21D;64049;46.290;44.240;2023-12-14T01:19:30;-8.90;81.85
75466;HTU21D;64049;46.290;44.240;2023-12-14T01:21:56;-8.88;81.86
75466;HTU21D;64049;46.290;44.240;2023-12-14T01:24:22;-8.89;81.85
75466;HTU21D;64049;46.290;44.240;2023-12-14T01:26:48;-8.88;81.85
75466;HTU21D;64049;46.290;44.240;2023-12-14T01:29:14;-8.86;81.85
75466;HTU21D;64049;46.290;44.240;2023-12-14T01:31:40;-8.86;81.84
75466;HTU21D;64049;46.290;44.240;2023-12-14T01:34:06;-8.84;81.85
75466;HTU21D;64049;46.290;44.240;2023-12-14T01:36:32;-8.84;81.84
75466;HTU21D;64049;46.290;44.240;2023-12-14T01:38:57;-8.84;81.84
75466;HTU21D;64049;46.290;44.240;2023-12-14T01:41:23;-8.82;81.83
75466;HTU21D;64049;46.290;44.240;2023-12-14T01:43:49;-8.82;81.84
75466;HTU21D;64049;46.290;44.240;2023-12-14T01:46:15;-8.81;81.85
75466;HTU21D;64049;46.290;44.240;2023-12-14T01:48:42;-8.82;81.84
75466;HTU21D;64049;46.290;44.240;2023-12-14T01:51:08;-8.81;81.86
75466;HTU21D;64049;46.290;44.240;2023-12-14T01:53:34;-8.80;81.84
75466;HTU21D;64049;46.290;44.240;2023-12-14T01:56:00;-8.81;81.84
75466;HTU21D;64049;46.290;44.240;2023-12-14T01:58:26;-8.80;81.86
75466;HTU21D;64049;46.290;44.240;2023-12-14T02:01:22;-8.81;81.86
75466;HTU21D;64049;46.290;44.240;2023-12-14T02:03:52;-8.78;81.85
75466;HTU21D;64049;46.290;44.240;2023-12-14T02:06:20;-8.79;81.86
75466;HTU21D;64049;46.290;44.240;2023-12-14T02:08:46;-8.79;81.85
75466;HTU21D;64049;46.290;44.240;2023-12-14T02:11:12;-8.80;81.86
75466;HTU21D;64049;46.290;44.240;2023-12-14T02:13:38;-8.78;81.84
75466;HTU21D;64049;46.290;44.240;2023-12-14T02:16:04;-8.78;81.84
75466;HTU21D;64049;46.290;44.240;2023-12-14T02:18:30;-8.78;81.87
75466;HTU21D;64049;46.290;44.240;2023-12-14T02:20:56;-8.78;81.85
75466;HTU21D;64049;46.290;44.240;2023-12-14T02:23:22;-8.78;81.85
75466;HTU21D;64049;46.290;44.240;2023-12-14T02:25:48;-8.77;81.85
75466;HTU21D;64049;46.290;44.240;2023-12-14T02:28:14;-8.75;81.84
75466;HTU21D;64049;46.290;44.240;2023-12-14T02:30:40;-8.77;81.85
75466;HTU21D;64049;46.290;44.240;2023-12-14T02:33:06;-8.75;81.86
75466;HTU21D;64049;46.290;44.240;2023-12-14T02:35:31;-8.73;81.87
75466;HTU21D;64049;46.290;44.240;2023-12-14T02:37:57;-8.72;81.88
75466;HTU21D;64049;46.290;44.240;2023-12-14T02:40:23;-8.73;81.84
75466;HTU21D;64049;46.290;44.240;2023-12-14T02:42:49;-8.75;81.85
75466;HTU21D;64049;46.290;44.240;2023-12-14T02:45:15;-8.74;81.85
75466;HTU21D;64049;46.290;44.240;2023-12-14T02:47:41;-8.75;81.85
75466;HTU21D;64049;46.290;44.240;2023-12-14T02:50:07;-8.74;81.88
75466;HTU21D;64049;46.290;44.240;2023-12-14T02:52:33;-8.73;81.89
75466;HTU21D;64049;46.290;44.240;2023-12-14T02:54:59;-8.74;81.88
75466;HTU21D;64049;46.290;44.240;2023-12-14T02:57:25;-8.74;81.86
75466;HTU21D;64049;46.290;44.240;2023-12-14T02:59:51;-8.77;81.84
75466;HTU21D;64049;46.290;44.240;2023-12-14T03:02:17;-8.80;81.88
75466;HTU21D;64049;46.290;44.240;2023-12-14T03:04:43;-8.80;81.88
75466;HTU21D;64049;46.290;44.240;2023-12-14T03:07:09;-8.81;81.90
75466;HTU21D;64049;46.290;44.240;2023-12-14T03:09:35;-8.81;81.90
75466;HTU21D;64049;46.290;44.240;2023-12-14T03:12:01;-8.79;81.90
75466;HTU21D;64049;46.290;44.240;2023-12-14T03:14:31;-8.80;81.89
75466;HTU21D;64049;46.290;44.240;2023-12-14T03:16:58;-8.81;81.91
75466;HTU21D;64049;46.290;44.240;2023-12-14T03:19:24;-8.81;81.88
75466;HTU21D;64049;46.290;44.240;2023-12-14T03:21:49;-8.81;81.89
75466;HTU21D;64049;46.290;44.240;2023-12-14T03:24:15;-8.82;81.88
75466;HTU21D;64049;46.290;44.240;2023-12-14T03:26:42;-8.81;81.90
75466;HTU21D;64049;46.290;44.240;2023-12-14T03:29:08;-8.81;81.90
75466;HTU21D;64049;46.290;44.240;2023-12-14T03:31:34;-8.82;81.91
75466;HTU21D;64049;46.290;44.240;2023-12-14T03:34:01;-8.82;81.88
75466;HTU21D;64049;46.290;44.240;2023-12-14T03:36:27;-8.81;81.90
75466;HTU21D;64049;46.290;44.240;2023-12-14T03:38:53;-8.79;81.91
75466;HTU21D;64049;46.290;44.240;2023-12-14T03:41:19;-8.79;81.88
75466;HTU21D;64049;46.290;44.240;2023-12-14T03:43:45;-8.77;81.89
75466;HTU21D;64049;46.290;44.240;2023-12-14T03:46:11;-8.77;81.87
75466;HTU21D;64049;46.290;44.240;2023-12-14T03:48:37;-8.77;81.87
75466;HTU21D;64049;46.290;44.240;2023-12-14T03:51:04;-8.75;81.86
75466;HTU21D;64049;46.290;44.240;2023-12-14T03:53:30;-8.74;81.85
75466;HTU21D;64049;46.290;44.240;2023-12-14T03:55:58;-8.73;81.87
75466;HTU21D;64049;46.290;44.240;2023-12-14T03:58:24;-8.73;81.85
75466;HTU21D;64049;46.290;44.240;2023-12-14T04:00:50;-8.71;81.83
75466;HTU21D;64049;46.290;44.240;2023-12-14T04:03:15;-8.72;81.82
75466;HTU21D;64049;46.290;44.240;2023-12-14T04:05:41;-8.71;81.84
75466;HTU21D;64049;46.290;44.240;2023-12-14T04:08:08;-8.68;81.85
75466;HTU21D;64049;46.290;44.240;2023-12-14T04:10:34;-8.66;81.83
75466;HTU21D;64049;46.290;44.240;2023-12-14T04:13:00;-8.65;81.83
75466;HTU21D;64049;46.290;44.240;2023-12-14T04:15:26;-8.64;81.80
75466;HTU21D;64049;46.290;44.240;2023-12-14T04:17:52;-8.65;81.81
75466;HTU21D;64049;46.290;44.240;2023-12-14T04:20:18;-8.64;81.81
75466;HTU21D;64049;46.290;44.240;2023-12-14T04:22:44;-8.63;81.81
75466;HTU21D;64049;46.290;44.240;2023-12-14T04:25:11;-8.62;81.81
75466;HTU21D;64049;46.290;44.240;2023-12-14T04:27:37;-8.62;81.79
75466;HTU21D;64049;46.290;44.240;2023-12-14T04:30:03;-8.60;81.81
75466;HTU21D;64049;46.290;44.240;2023-12-14T04:32:30;-8.62;81.79
75466;HTU21D;64049;46.290;44.240;2023-12-14T04:34:56;-8.62;81.78
75466;HTU21D;64049;46.290;44.240;2023-12-14T04:37:22;-8.59;81.81
75466;HTU21D;64049;46.290;44.240;2023-12-14T04:39:48;-8.57;81.81
75466;HTU21D;64049;46.290;44.240;2023-12-14T04:42:13;-8.56;81.81
75466;HTU21D;64049;46.290;44.240;2023-12-14T04:44:39;-8.54;81.81
75466;HTU21D;64049;46.290;44.240;2023-12-14T04:47:05;-8.53;81.79
75466;HTU21D;64049;46.290;44.240;2023-12-14T04:49:31;-8.51;81.80
75466;HTU21D;64049;46.290;44.240;2023-12-14T04:51:57;-8.48;81.80
75466;HTU21D;64049;46.290;44.240;2023-12-14T04:54:23;-8.48;81.77
75466;HTU21D;64049;46.290;44.240;2023-12-14T04:56:49;-8.45;81.78
75466;HTU21D;64049;46.290;44.240;2023-12-14T04:59:15;-8.43;81.77
75466;HTU21D;64049;46.290;44.240;2023-12-14T05:01:41;-8.41;81.76
75466;HTU21D;64049;46.290;44.240;2023-12-14T05:04:07;-8.38;81.80
75466;HTU21D;64049;46.290;44.240;2023-12-14T05:06:32;-8.33;81.77
75466;HTU21D;64049;46.290;44.240;2023-12-14T05:08:59;-8.31;81.74
75466;HTU21D;64049;46.290;44.240;2023-12-14T05:11:28;-8.30;81.76
75466;HTU21D;64049;46.290;44.240;2023-12-14T05:13:54;-8.27;81.75
75466;HTU21D;64049;46.290;44.240;2023-12-14T05:16:20;-8.25;81.74
75466;HTU21D;64049;46.290;44.240;2023-12-14T05:18:46;-8.22;81.75
75466;HTU21D;64049;46.290;44.240;2023-12-14T05:21:18;-8.16;81.75
75466;HTU21D;64049;46.290;44.240;2023-12-14T05:23:45;-8.12;81.73
75466;HTU21D;64049;46.290;44.240;2023-12-14T05:26:11;-8.10;81.72
75466;HTU21D;64049;46.290;44.240;2023-12-14T05:28:37;-8.08;81.72
75466;HTU21D;64049;46.290;44.240;2023-12-14T05:31:03;-8.05;81.71
75466;HTU21D;64049;46.290;44.240;2023-12-14T05:33:29;-8.04;81.68
75466;HTU21D;64049;46.290;44.240;2023-12-14T05:35:57;-8.00;81.68
75466;HTU21D;64049;46.290;44.240;2023-12-14T05:38:22;-7.95;81.70
75466;HTU21D;64049;46.290;44.240;2023-12-14T05:40:48;-7.91;81.66
75466;HTU21D;64049;46.290;44.240;2023-12-14T05:43:14;-7.84;81.68
75466;HTU21D;64049;46.290;44.240;2023-12-14T05:45:40;-7.76;81.69
75466;HTU21D;64049;46.290;44.240;2023-12-14T05:48:06;-7.69;81.66
75466;HTU21D;64049;46.290;44.240;2023-12-14T05:50:32;-7.57;81.69
75466;HTU21D;64049;46.290;44.240;2023-12-14T05:52:58;-7.49;81.60
75466;HTU21D;64049;46.290;44.240;2023-12-14T05:55:24;-7.44;81.58
75466;HTU21D;64049;46.290;44.240;2023-12-14T05:57:50;-7.38;81.52
75466;HTU21D;64049;46.290;44.240;2023-12-14T06:00:17;-7.34;81.52
75466;HTU21D;64049;46.290;44.240;2023-12-14T06:02:44;-7.27;81.54
75466;HTU21D;64049;46.290;44.240;2023-12-14T06:05:10;-7.23;81.46
75466;HTU21D;64049;46.290;44.240;2023-12-14T06:07:36;-7.20;81.48
75466;HTU21D;64049;46.290;44.240;2023-12-14T06:10:03;-7.12;81.51
75466;HTU21D;64049;46.290;44.240;2023-12-14T06:12:29;-7.03;81.46
75466;HTU21D;64049;46.290;44.240;2023-12-14T06:14:55;-6.89;81.49
75466;HTU21D;64049;46.290;44.240;2023-12-14T06:17:21;-6.82;81.36
75466;HTU21D;64049;46.290;44.240;2023-12-14T06:19:47;-6.75;81.39
75466;HTU21D;64049;46.290;44.240;2023-12-14T06:22:12;-6.71;81.24
75466;HTU21D;64049;46.290;44.240;2023-12-14T06:24:38;-6.67;81.27
75466;HTU21D;64049;46.290;44.240;2023-12-14T06:27:04;-6.55;81.31
75466;HTU21D;64049;46.290;44.240;2023-12-14T06:29:30;-6.48;81.29
75466;HTU21D;64049;46.290;44.240;2023-12-14T06:31:56;-6.43;81.22
75466;HTU21D;64049;46.290;44.240;2023-12-14T06:34:22;-6.46;81.11
75466;HTU21D;64049;46.290;44.240;2023-12-14T06:36:48;-6.43;81.19
75466;HTU21D;64049;46.290;44.240;2023-12-14T06:39:14;-6.39;81.17
75466;HTU21D;64049;46.290;44.240;2023-12-14T06:41:40;-6.35;81.20
75466;HTU21D;64049;46.290;44.240;2023-12-14T06:44:06;-6.28;81.20
75466;HTU21D;64049;46.290;44.240;2023-12-14T06:46:34;-6.23;81.17
75466;HTU21D;64049;46.290;44.240;2023-12-14T06:49:01;-6.24;81.11
75466;HTU21D;64049;46.290;44.240;2023-12-14T06:51:27;-6.18;81.15
75466;HTU21D;64049;46.290;44.240;2023-12-14T06:53:53;-6.07;81.21
75466;HTU21D;64049;46.290;44.240;2023-12-14T06:56:19;-5.93;81.06
75466;HTU21D;64049;46.290;44.240;2023-12-14T06:58:45;-5.90;80.93
75466;HTU21D;64049;46.290;44.240;2023-12-14T07:01:15;-5.91;80.84
75466;HTU21D;64049;46.290;44.240;2023-12-14T07:03:41;-5.84;80.89
75466;HTU21D;64049;46.290;44.240;2023-12-14T07:06:16;-5.71;80.81
75466;HTU21D;64049;46.290;44.240;2023-12-14T07:08:43;-5.75;80.66
75466;HTU21D;64049;46.290;44.240;2023-12-14T07:11:09;-5.79;80.67
75466;HTU21D;64049;46.290;44.240;2023-12-14T07:20:47;-5.54;80.69
75466;HTU21D;64049;46.290;44.240;2023-12-14T07:23:36;-5.39;80.61
75466;HTU21D;64049;46.290;44.240;2023-12-14T07:26:03;-5.19;80.62
75466;HTU21D;64049;46.290;44.240;2023-12-14T07:28:29;-4.98;80.36
75466;HTU21D;64049;46.290;44.240;2023-12-14T07:30:57;-4.93;80.07
75466;HTU21D;64049;46.290;44.240;2023-12-14T07:33:24;-4.97;79.98
75466;HTU21D;64049;46.290;44.240;2023-12-14T07:35:50;-4.94;80.03
75466;HTU21D;64049;46.290;44.240;2023-12-14T07:38:16;-4.86;80.06
75466;HTU21D;64049;46.290;44.240;2023-12-14T07:40:42;-4.86;80.02
75466;HTU21D;64049;46.290;44.240;2023-12-14T07:43:08;-4.82;80.07
75466;HTU21D;64049;46.290;44.240;2023-12-14T07:45:34;-4.71;80.10
75466;HTU21D;64049;46.290;44.240;2023-12-14T07:48:00;-4.65;79.95
75466;HTU21D;64049;46.290;44.240;2023-12-14T07:50:26;-4.61;79.89
75466;HTU21D;64049;46.290;44.240;2023-12-14T07:52:52;-4.51;79.88
75466;HTU21D;64049;46.290;44.240;2023-12-14T07:55:21;-4.42;79.75
75466;HTU21D;64049;46.290;44.240;2023-12-14T07:57:47;-4.40;79.66
75466;HTU21D;64049;46.290;44.240;2023-12-14T08:00:15;-4.39;79.65
75466;HTU21D;64049;46.290;44.240;2023-12-14T08:02:41;-4.40;79.41
75466;HTU21D;64049;46.290;44.240;2023-12-14T08:05:07;-4.40;79.49
75466;HTU21D;64049;46.290;44.240;2023-12-14T08:07:35;-4.29;79.50
75466;HTU21D;64049;46.290;44.240;2023-12-14T08:10:01;-4.21;79.32
75466;HTU21D;64049;46.290;44.240;2023-12-14T08:12:26;-4.12;79.21
75466;HTU21D;64049;46.290;44.240;2023-12-14T08:14:52;-3.91;79.12
75466;HTU21D;64049;46.290;44.240;2023-12-14T08:17:18;-3.68;78.79
75466;HTU21D;64049;46.290;44.240;2023-12-14T08:19:44;-3.55;78.50
75466;HTU21D;64049;46.290;44.240;2023-12-14T08:22:11;-3.50;78.28
75466;HTU21D;64049;46.290;44.240;2023-12-14T08:24:38;-3.56;78.23
75466;HTU21D;64049;46.290;44.240;2023-12-14T08:27:04;-3.51;78.43
75466;HTU21D;64049;46.290;44.240;2023-12-14T08:29:30;-3.47;78.43
75466;HTU21D;64049;46.290;44.240;2023-12-14T08:31:56;-3.56;78.33
75466;HTU21D;64049;46.290;44.240;2023-12-14T08:34:25;-3.62;78.28
75466;HTU21D;64049;46.290;44.240;2023-12-14T08:36:51;-3.57;78.27
75466;HTU21D;64049;46.290;44.240;2023-12-14T08:39:17;-3.60;78.25
75466;HTU21D;64049;46.290;44.240;2023-12-14T08:41:45;-3.66;78.20
75466;HTU21D;64049;46.290;44.240;2023-12-14T08:44:11;-3.70;78.17
75466;HTU21D;64049;46.290;44.240;2023-12-14T08:46:46;-3.63;78.14
75466;HTU21D;64049;46.290;44.240;2023-12-14T08:49:12;-3.62;78.08
75466;HTU21D;64049;46.290;44.240;2023-12-14T08:51:39;-3.62;77.92
75466;HTU21D;64049;46.290;44.240;2023-12-14T08:54:05;-3.56;77.89
75466;HTU21D;64049;46.290;44.240;2023-12-14T08:56:32;-3.55;77.84
75466;HTU21D;64049;46.290;44.240;2023-12-14T08:58:58;-3.42;77.78
75466;HTU21D;64049;46.290;44.240;2023-12-14T09:01:25;-3.40;77.71
75466;HTU21D;64049;46.290;44.240;2023-12-14T09:03:51;-3.50;77.66
75466;HTU21D;64049;46.290;44.240;2023-12-14T09:06:17;-3.62;77.80
75466;HTU21D;64049;46.290;44.240;2023-12-14T09:08:44;-3.66;77.94
75466;HTU21D;64049;46.290;44.240;2023-12-14T09:11:11;-3.72;77.97
75466;HTU21D;64049;46.290;44.240;2023-12-14T09:13:37;-3.76;78.11
75466;HTU21D;64049;46.290;44.240;2023-12-14T09:16:03;-3.80;78.23
75466;HTU21D;64049;46.290;44.240;2023-12-14T09:18:29;-3.76;78.32
75466;HTU21D;64049;46.290;44.240;2023-12-14T09:20:56;-3.77;78.34
75466;HTU21D;64049;46.290;44.240;2023-12-14T09:23:22;-3.71;78.35
75466;HTU21D;64049;46.290;44.240;2023-12-14T09:25:48;-3.77;78.34
75466;HTU21D;64049;46.290;44.240;2023-12-14T09:28:15;-3.70;78.40
75466;HTU21D;64049;46.290;44.240;2023-12-14T09:30:41;-3.58;78.49
75466;HTU21D;64049;46.290;44.240;2023-12-14T09:33:07;-3.47;78.40
75466;HTU21D;64049;46.290;44.240;2023-12-14T09:35:35;-3.35;78.31
75466;HTU21D;64049;46.290;44.240;2023-12-14T09:38:05;-3.30;78.16
75466;HTU21D;64049;46.290;44.240;2023-12-14T09:40:31;-3.42;78.14
75466;HTU21D;64049;46.290;44.240;2023-12-14T09:42:57;-3.52;78.36
75466;HTU21D;64049;46.290;44.240;2023-12-14T09:45:28;-3.55;78.47
75466;HTU21D;64049;46.290;44.240;2023-12-14T09:47:56;-3.52;78.66
75466;HTU21D;64049;46.290;44.240;2023-12-14T09:50:23;-3.47;78.66
75466;HTU21D;64049;46.290;44.240;2023-12-14T09:52:49;-3.45;78.64
75466;HTU21D;64049;46.290;44.240;2023-12-14T09:55:16;-3.45;78.55
75466;HTU21D;64049;46.290;44.240;2023-12-14T09:57:42;-3.51;78.53
75466;HTU21D;64049;46.290;44.240;2023-12-14T10:00:09;-3.53;78.68
75466;HTU21D;64049;46.290;44.240;2023-12-14T10:02:40;-3.51;78.70
75466;HTU21D;64049;46.290;44.240;2023-12-14T10:05:10;-3.51;78.70
75466;HTU21D;64049;46.290;44.240;2023-12-14T10:07:43;-3.43;78.72
75466;HTU21D;64049;46.290;44.240;2023-12-14T10:10:13;-3.47;78.71
75466;HTU21D;64049;46.290;44.240;2023-12-14T10:12:53;-3.38;78.76
75466;HTU21D;64049;46.290;44.240;2023-12-14T10:15:19;-3.34;78.66
75466;HTU21D;64049;46.290;44.240;2023-12-14T10:17:45;-3.45;78.53
75466;HTU21D;64049;46.290;44.240;2023-12-14T10:20:22;-3.50;78.67
75466;HTU21D;64049;46.290;44.240;2023-12-14T10:22:51;-3.46;78.81
75466;HTU21D;64049;46.290;44.240;2023-12-14T10:25:20;-3.47;78.80
75466;HTU21D;64049;46.290;44.240;2023-12-14T10:27:46;-3.48;78.79
75466;HTU21D;64049;46.290;44.240;2023-12-14T10:30:14;-3.50;78.81
75466;HTU21D;64049;46.290;44.240;2023-12-14T10:32:41;-3.48;78.80
75466;HTU21D;64049;46.290;44.240;2023-12-14T10:35:07;-3.47;78.77
75466;HTU21D;64049;46.290;44.240;2023-12-14T10:37:37;-3.47;78.80
75466;HTU21D;64049;46.290;44.240;2023-12-14T10:40:06;-3.46;78.83
75466;HTU21D;64049;46.290;44.240;2023-12-14T10:42:34;-3.37;78.72
75466;HTU21D;64049;46.290;44.240;2023-12-14T10:45:02;-3.49;78.72
75466;HTU21D;64049;46.290;44.240;2023-12-14T10:47:30;-3.58;78.76
75466;HTU21D;64049;46.290;44.240;2023-12-14T10:49:56;-3.76;78.76
75466;HTU21D;64049;46.290;44.240;2023-12-14T10:52:24;-3.82;79.03
75466;HTU21D;64049;46.290;44.240;2023-12-14T10:55:04;-3.87;79.04
75466;HTU21D;64049;46.290;44.240;2023-12-14T10:57:30;-3.94;79.15
75466;HTU21D;64049;46.290;44.240;2023-12-14T11:00:02;-4.01;79.04
75466;HTU21D;64049;46.290;44.240;2023-12-14T11:02:28;-4.06;79.14
75466;HTU21D;64049;46.290;44.240;2023-12-14T11:04:57;-4.08;79.09
75466;HTU21D;64049;46.290;44.240;2023-12-14T11:07:43;-4.09;79.11
75466;HTU21D;64049;46.290;44.240;2023-12-14T11:10:13;-4.10;79.02
75466;HTU21D;64049;46.290;44.240;2023-12-14T11:13:03;-4.17;79.00
75466;HTU21D;64049;46.290;44.240;2023-12-14T11:15:30;-4.19;78.98
75466;HTU21D;64049;46.290;44.240;2023-12-14T11:23:13;-4.22;78.95
75466;HTU21D;64049;46.290;44.240;2023-12-14T11:25:43;-4.31;78.73
75466;HTU21D;64049;46.290;44.240;2023-12-14T11:28:10;-4.42;78.69
75466;HTU21D;64049;46.290;44.240;2023-12-14T11:30:36;-4.48;78.75
75466;HTU21D;64049;46.290;44.240;2023-12-14T11:33:03;-4.52;78.72
75466;HTU21D;64049;46.290;44.240;2023-12-14T11:35:29;-4.54;78.75
75466;HTU21D;64049;46.290;44.240;2023-12-14T11:37:56;-4.54;78.75
75466;HTU21D;64049;46.290;44.240;2023-12-14T11:40:25;-4.56;78.73
75466;HTU21D;64049;46.290;44.240;2023-12-14T11:43:02;-4.55;78.71
75466;HTU21D;64049;46.290;44.240;2023-12-14T11:45:36;-4.59;78.59
75466;HTU21D;64049;46.290;44.240;2023-12-14T11:48:04;-4.63;78.65
75466;HTU21D;64049;46.290;44.240;2023-12-14T11:50:32;-4.61;78.57
75466;HTU21D;64049;46.290;44.240;2023-12-14T11:53:00;-4.63;78.54
75466;HTU21D;64049;46.290;44.240;2023-12-14T11:55:27;-4.65;78.50
75466;HTU21D;64049;46.290;44.240;2023-12-14T11:57:53;-4.68;78.56
75466;HTU21D;64049;46.290;44.240;2023-12-14T12:00:26;-4.67;78.54
75466;HTU21D;64049;46.290;44.240;2023-12-14T12:03:09;-4.73;78.57
75466;HTU21D;64049;46.290;44.240;2023-12-14T12:08:06;-4.73;78.66
75466;HTU21D;64049;46.290;44.240;2023-12-14T12:10:33;-4.80;78.55
75466;HTU21D;64049;46.290;44.240;2023-12-14T12:13:03;-4.85;78.59
75466;HTU21D;64049;46.290;44.240;2023-12-14T12:15:33;-4.93;78.62
75466;HTU21D;64049;46.290;44.240;2023-12-14T12:18:09;-4.99;78.68
75466;HTU21D;64049;46.290;44.240;2023-12-14T12:20:36;-5.01;78.74
75466;HTU21D;64049;46.290;44.240;2023-12-14T12:23:02;-5.07;78.69
75466;HTU21D;64049;46.290;44.240;2023-12-14T12:25:30;-5.12;78.75
75466;HTU21D;64049;46.290;44.240;2023-12-14T12:28:00;-5.16;78.73
75466;HTU21D;64049;46.290;44.240;2023-12-14T12:30:27;-5.24;78.72
75466;HTU21D;64049;46.290;44.240;2023-12-14T12:32:54;-5.29;78.77
75466;HTU21D;64049;46.290;44.240;2023-12-14T12:35:22;-5.35;78.76
75466;HTU21D;64049;46.290;44.240;2023-12-14T12:37:48;-5.43;78.75
75466;HTU21D;64049;46.290;44.240;2023-12-14T12:40:23;-5.52;78.81
75466;HTU21D;64049;46.290;44.240;2023-12-14T12:42:51;-5.56;78.89
75466;HTU21D;64049;46.290;44.240;2023-12-14T12:45:18;-5.61;78.98
75466;HTU21D;64049;46.290;44.240;2023-12-14T12:47:45;-5.65;79.01
75466;HTU21D;64049;46.290;44.240;2023-12-14T12:50:12;-5.70;79.13
75466;HTU21D;64049;46.290;44.240;2023-12-14T12:52:38;-5.73;79.18
75466;HTU21D;64049;46.290;44.240;2023-12-14T12:55:05;-5.77;79.24
75466;HTU21D;64049;46.290;44.240;2023-12-14T12:57:32;-5.82;79.27
75466;HTU21D;64049;46.290;44.240;2023-12-14T12:59:58;-5.88;79.30
75466;HTU21D;64049;46.290;44.240;2023-12-14T13:02:24;-5.91;79.35
75466;HTU21D;64049;46.290;44.240;2023-12-14T13:04:50;-5.96;79.41
75466;HTU21D;64049;46.290;44.240;2023-12-14T13:07:16;-5.99;79.46
75466;HTU21D;64049;46.290;44.240;2023-12-14T13:09:44;-6.03;79.49
75466;HTU21D;64049;46.290;44.240;2023-12-14T13:12:10;-6.06;79.53
75466;HTU21D;64049;46.290;44.240;2023-12-14T13:14:36;-6.09;79.55
75466;HTU21D;64049;46.290;44.240;2023-12-14T13:17:02;-6.09;79.60
75466;HTU21D;64049;46.290;44.240;2023-12-14T13:19:28;-6.08;79.59
75466;HTU21D;64049;46.290;44.240;2023-12-14T13:21:55;-6.08;79.56
75466;HTU21D;64049;46.290;44.240;2023-12-14T13:24:23;-6.08;79.52
75466;HTU21D;64049;46.290;44.240;2023-12-14T13:33:30;-6.14;79.33
75466;HTU21D;64049;46.290;44.240;2023-12-14T13:36:18;-6.14;79.29
75466;HTU21D;64049;46.290;44.240;2023-12-14T13:46:44;-6.19;79.19
75466;HTU21D;64049;46.290;44.240;2023-12-14T13:49:10;-6.22;79.21
75466;HTU21D;64049;46.290;44.240;2023-12-14T13:51:36;-6.26;79.24
75466;HTU21D;64049;46.290;44.240;2023-12-14T14:00:31;-6.30;79.36
75466;HTU21D;64049;46.290;44.240;2023-12-14T14:03:03;-6.31;79.35
75466;HTU21D;64049;46.290;44.240;2023-12-14T14:05:30;-6.33;79.37
75466;HTU21D;64049;46.290;44.240;2023-12-14T14:07:56;-6.33;79.39
75466;HTU21D;64049;46.290;44.240;2023-12-14T14:10:23;-6.33;79.40
75466;HTU21D;64049;46.290;44.240;2023-12-14T14:12:49;-6.33;79.43
75466;HTU21D;64049;46.290;44.240;2023-12-14T14:15:27;-6.32;79.41
75466;HTU21D;64049;46.290;44.240;2023-12-14T14:18:32;-6.32;79.42
75466;HTU21D;64049;46.290;44.240;2023-12-14T14:21:29;-6.33;79.42
75466;HTU21D;64049;46.290;44.240;2023-12-14T14:23:55;-6.32;79.44
75466;HTU21D;64049;46.290;44.240;2023-12-14T14:26:21;-6.34;79.48
75466;HTU21D;64049;46.290;44.240;2023-12-14T14:28:47;-6.32;79.48
75466;HTU21D;64049;46.290;44.240;2023-12-14T14:31:13;-6.32;79.50
75466;HTU21D;64049;46.290;44.240;2023-12-14T14:33:39;-6.32;79.51
75466;HTU21D;64049;46.290;44.240;2023-12-14T14:36:05;-6.29;79.53
75466;HTU21D;64049;46.290;44.240;2023-12-14T14:38:31;-6.29;79.53
75466;HTU21D;64049;46.290;44.240;2023-12-14T14:40:57;-6.28;79.54
75466;HTU21D;64049;46.290;44.240;2023-12-14T14:43:23;-6.26;79.53
75466;HTU21D;64049;46.290;44.240;2023-12-14T14:45:50;-6.26;79.52
75466;HTU21D;64049;46.290;44.240;2023-12-14T14:48:15;-6.23;79.51
75466;HTU21D;64049;46.290;44.240;2023-12-14T14:50:42;-6.24;79.48
75466;HTU21D;64049;46.290;44.240;2023-12-14T14:53:08;-6.24;79.45
75466;HTU21D;64049;46.290;44.240;2023-12-14T14:55:34;-6.26;79.44
75466;HTU21D;64049;46.290;44.240;2023-12-14T14:58:00;-6.26;79.43
75466;HTU21D;64049;46.290;44.240;2023-12-14T15:00:26;-6.28;79.39
75466;HTU21D;64049;46.290;44.240;2023-12-14T15:02:52;-6.28;79.36
75466;HTU21D;64049;46.290;44.240;2023-12-14T15:05:18;-6.29;79.34
75466;HTU21D;64049;46.290;44.240;2023-12-14T15:07:44;-6.31;79.31
75466;HTU21D;64049;46.290;44.240;2023-12-14T15:10:10;-6.31;79.28
75466;HTU21D;64049;46.290;44.240;2023-12-14T15:12:36;-6.32;79.29
75466;HTU21D;64049;46.290;44.240;2023-12-14T15:15:02;-6.31;79.30
75466;HTU21D;64049;46.290;44.240;2023-12-14T15:17:28;-6.29;79.31
75466;HTU21D;64049;46.290;44.240;2023-12-14T15:19:54;-6.30;79.27
75466;HTU21D;64049;46.290;44.240;2023-12-14T15:22:20;-6.30;79.28
75466;HTU21D;64049;46.290;44.240;2023-12-14T15:24:47;-6.32;79.25
75466;HTU21D;64049;46.290;44.240;2023-12-14T15:27:14;-6.33;79.27
75466;HTU21D;64049;46.290;44.240;2023-12-14T15:29:41;-6.33;79.28
75466;HTU21D;64049;46.290;44.240;2023-12-14T15:32:07;-6.34;79.30
75466;HTU21D;64049;46.290;44.240;2023-12-14T15:34:33;-6.35;79.30
75466;HTU21D;64049;46.290;44.240;2023-12-14T15:36:59;-6.37;79.27
75466;HTU21D;64049;46.290;44.240;2023-12-14T15:39:25;-6.39;79.24